Randlett, Utah
Current Conditions -  °F | °C
As of 10:53 PM on Tuesday 27 Jan 2015 (Local Time) from KVEL Reporting Station
Overcast Overcast  
Wind Chill: 32°   Ceiling: 7500
Heat Index: 36°   Visibility: 10mi
Dew Point: 27°   Wind: 5mph
Humidity: 70%   Direction: 250°WSW
Pressure: 30.23"   Gusts: NA
Location:  40.23°N, 109.8°W
Report Text: KVEL 280553Z AUTO 25004KT 10SM SCT055 OVC075 02/M03 A3023 RMK AO2 SLP240 T00221028 10061 21006 55000
Loading
Personal Weather Stations






























Interactive Weather Map New forecast layout! Learn more

10-Day Weather Forecast

Advertisements
Track Severe Weather on mobile